createdAt,value
2019-03-30T00:00:17.753Z,31.25
2019-03-30T00:01:32.634Z,28.90
2019-03-30T00:02:45.858Z,29.23
2019-03-30T00:03:59.089Z,32.00
2019-03-30T00:05:12.339Z,29.45
2019-03-30T00:06:25.574Z,36.13
2019-03-30T00:07:38.818Z,35.65
2019-03-30T00:08:52.145Z,31.12
2019-03-30T00:10:05.749Z,29.42
2019-03-30T00:11:19.005Z,30.02
2019-03-30T00:12:32.310Z,31.40
2019-03-30T00:13:45.541Z,32.53
2019-03-30T00:14:58.765Z,30.50
2019-03-30T00:16:12.020Z,32.53
2019-03-30T00:17:25.266Z,28.02
2019-03-30T00:18:41.234Z,30.80
2019-03-30T00:19:53.481Z,32.00
2019-03-30T00:21:06.715Z,32.55
2019-03-30T00:22:19.957Z,27.32
2019-03-30T00:23:33.206Z,31.68
2019-03-30T00:24:46.439Z,35.10
2019-03-30T00:26:01.081Z,28.75
2019-03-30T00:27:14.346Z,31.80
2019-03-30T00:28:27.588Z,30.00
2019-03-30T00:29:40.838Z,32.67
2019-03-30T00:30:54.086Z,95.83
2019-03-30T00:32:07.321Z,39.73
2019-03-30T00:33:22.183Z,55.08
2019-03-30T00:34:35.417Z,51.75
2019-03-30T00:35:48.930Z,45.10
2019-03-30T00:37:03.084Z,42.50
2019-03-30T00:38:16.309Z,31.55
2019-03-30T00:39:29.561Z,30.77
2019-03-30T00:40:42.857Z,31.55
2019-03-30T00:41:56.108Z,31.68
2019-03-30T00:43:09.349Z,28.00
2019-03-30T00:44:23.544Z,29.55
2019-03-30T00:45:36.773Z,29.02
2019-03-30T00:46:50.255Z,31.62
2019-03-30T00:48:03.489Z,28.67
2019-03-30T00:49:16.746Z,27.75
2019-03-30T00:50:29.971Z,30.72
2019-03-30T00:51:43.209Z,30.17
2019-03-30T00:52:56.457Z,30.90
2019-03-30T00:54:10.599Z,33.33
2019-03-30T00:55:23.920Z,31.27
2019-03-30T00:56:37.134Z,29.67
2019-03-30T00:57:50.390Z,29.07
2019-03-30T00:59:03.637Z,33.13
2019-03-30T01:00:16.930Z,30.40
2019-03-30T01:01:30.173Z,29.20
2019-03-30T01:02:43.393Z,30.23
2019-03-30T01:03:56.633Z,29.70
2019-03-30T01:05:09.873Z,32.35
2019-03-30T01:06:23.118Z,31.50
2019-03-30T01:07:37.615Z,27.65
2019-03-30T01:08:50.840Z,29.65
2019-03-30T01:10:05.630Z,27.65
2019-03-30T01:11:18.860Z,31.50
2019-03-30T01:12:32.098Z,29.77
2019-03-30T01:13:45.395Z,27.05
2019-03-30T01:14:58.629Z,32.08
2019-03-30T01:16:12.614Z,26.62
2019-03-30T01:17:25.886Z,28.35
2019-03-30T01:18:40.273Z,33.30
2019-03-30T01:20:02.838Z,28.40
2019-03-30T01:21:08.593Z,28.40
2019-03-30T01:22:22.302Z,29.02
2019-03-30T01:23:35.533Z,27.58
2019-03-30T01:24:49.483Z,27.60
2019-03-30T01:26:02.716Z,27.80
2019-03-30T01:27:15.941Z,25.92
2019-03-30T01:28:29.180Z,27.67
2019-03-30T01:29:42.676Z,25.08
2019-03-30T01:30:56.149Z,27.15
2019-03-30T01:32:09.377Z,29.10
2019-03-30T01:33:22.616Z,25.30
2019-03-30T01:34:35.855Z,32.08
2019-03-30T01:35:49.090Z,29.72
2019-03-30T01:37:02.337Z,30.70
2019-03-30T01:38:15.561Z,27.30
2019-03-30T01:39:28.802Z,27.27
2019-03-30T01:40:42.046Z,26.52
2019-03-30T01:41:55.278Z,29.90
2019-03-30T01:43:08.519Z,26.68
2019-03-30T01:44:21.755Z,28.38
2019-03-30T01:45:34.985Z,26.60
2019-03-30T01:46:48.243Z,26.20
2019-03-30T01:48:01.481Z,29.40
2019-03-30T01:49:14.702Z,28.02
2019-03-30T01:50:27.933Z,29.45
2019-03-30T01:51:41.164Z,28.62
2019-03-30T01:52:54.402Z,25.65
2019-03-30T01:54:07.621Z,30.02
2019-03-30T01:55:20.861Z,27.52
2019-03-30T01:56:34.106Z,30.85
2019-03-30T01:57:47.803Z,27.13
2019-03-30T01:59:01.041Z,31.40
2019-03-30T02:00:14.360Z,26.60
2019-03-30T02:01:27.601Z,36.55
2019-03-30T02:02:40.987Z,29.75
2019-03-30T02:03:54.224Z,29.25
2019-03-30T02:05:07.460Z,34.13
2019-03-30T02:06:20.681Z,28.05
2019-03-30T02:07:33.918Z,29.82
2019-03-30T02:08:48.790Z,30.37
2019-03-30T02:10:02.040Z,27.15
2019-03-30T02:11:15.272Z,30.12
2019-03-30T02:12:28.497Z,27.48
2019-03-30T02:13:41.976Z,29.40
2019-03-30T02:14:55.213Z,25.25
2019-03-30T02:16:08.702Z,25.68
2019-03-30T02:17:22.418Z,26.25
2019-03-30T02:18:35.626Z,25.95
2019-03-30T02:19:48.850Z,23.85
2019-03-30T02:21:02.090Z,27.75
2019-03-30T02:22:15.327Z,27.93
2019-03-30T02:23:28.550Z,27.73
2019-03-30T02:24:41.786Z,24.10
2019-03-30T02:25:55.018Z,28.00
2019-03-30T02:27:08.249Z,26.12
2019-03-30T02:28:21.469Z,24.65
2019-03-30T02:29:34.768Z,26.55
2019-03-30T02:30:48.006Z,27.58
2019-03-30T02:32:01.490Z,34.65
2019-03-30T02:33:14.734Z,27.35
2019-03-30T02:34:27.959Z,24.67
2019-03-30T02:35:41.247Z,23.85
2019-03-30T02:36:54.496Z,25.00
2019-03-30T02:38:07.746Z,24.75
2019-03-30T02:39:22.665Z,26.80
2019-03-30T02:40:35.905Z,29.57
2019-03-30T02:41:49.161Z,27.50
2019-03-30T02:43:02.907Z,27.77
2019-03-30T02:44:16.147Z,29.80
2019-03-30T02:45:29.370Z,28.95
2019-03-30T02:46:42.598Z,25.20
2019-03-30T02:47:57.454Z,25.23
2019-03-30T02:49:10.691Z,24.20
2019-03-30T02:50:23.922Z,24.57
2019-03-30T02:51:37.161Z,23.62
2019-03-30T02:52:50.424Z,27.60
2019-03-30T02:54:03.831Z,21.50
2019-03-30T02:55:17.149Z,23.98
2019-03-30T02:56:30.651Z,23.62
2019-03-30T02:57:43.890Z,25.43
2019-03-30T02:58:57.119Z,23.47
2019-03-30T03:00:12.010Z,22.17
2019-03-30T03:01:25.251Z,23.25
2019-03-30T03:02:38.478Z,20.85
2019-03-30T03:03:52.280Z,18.75
2019-03-30T03:05:06.178Z,22.17
2019-03-30T03:06:19.435Z,20.90
2019-03-30T03:07:32.674Z,26.73
2019-03-30T03:08:45.890Z,24.00
2019-03-30T03:09:59.591Z,18.92
2019-03-30T03:11:13.742Z,20.85
2019-03-30T03:12:26.962Z,23.98
2019-03-30T03:13:40.189Z,28.45
2019-03-30T03:14:53.428Z,25.30
2019-03-30T03:16:06.697Z,24.30
2019-03-30T03:17:19.979Z,24.10
2019-03-30T03:18:34.364Z,23.80
2019-03-30T03:19:47.596Z,25.27
2019-03-30T03:21:08.042Z,25.60
2019-03-30T03:22:15.782Z,25.08
2019-03-30T03:23:29.010Z,24.07
2019-03-30T03:24:42.234Z,22.20
2019-03-30T03:25:55.457Z,28.52
2019-03-30T03:27:12.653Z,27.27
2019-03-30T03:28:25.894Z,21.35
2019-03-30T03:29:43.265Z,24.20
2019-03-30T03:30:54.128Z,24.98
2019-03-30T03:32:07.381Z,23.90
2019-03-30T03:33:20.694Z,20.55
2019-03-30T03:34:33.918Z,23.62
2019-03-30T03:35:47.151Z,25.77
2019-03-30T03:37:00.388Z,20.30
2019-03-30T03:38:13.620Z,20.57
2019-03-30T03:39:26.846Z,25.43
2019-03-30T03:40:40.079Z,20.95
2019-03-30T03:41:53.321Z,20.88
2019-03-30T03:43:06.549Z,27.50
2019-03-30T03:44:19.795Z,19.12
2019-03-30T03:45:33.028Z,20.82
2019-03-30T03:46:46.267Z,21.77
2019-03-30T03:47:59.501Z,24.23
2019-03-30T03:49:12.723Z,21.12
2019-03-30T03:50:41.968Z,22.25
2019-03-30T03:51:55.206Z,22.20
2019-03-30T03:53:08.461Z,23.38
2019-03-30T03:54:21.810Z,22.02
2019-03-30T03:55:35.017Z,21.30
2019-03-30T03:56:48.735Z,20.52
2019-03-30T03:58:01.983Z,22.75
2019-03-30T03:59:15.209Z,20.90
2019-03-30T04:00:28.445Z,21.23
2019-03-30T04:01:41.663Z,20.92
2019-03-30T04:02:54.923Z,20.52
2019-03-30T04:04:08.521Z,18.73
2019-03-30T04:05:21.836Z,25.05
2019-03-30T04:06:35.068Z,21.40
2019-03-30T04:07:48.306Z,22.75
2019-03-30T04:09:04.294Z,19.98
2019-03-30T04:10:17.522Z,22.50
2019-03-30T04:11:31.534Z,22.05
2019-03-30T04:12:44.766Z,21.10
2019-03-30T04:13:58.007Z,20.80
2019-03-30T04:15:14.519Z,24.23
2019-03-30T04:16:27.738Z,25.70
2019-03-30T04:17:40.989Z,22.37
2019-03-30T04:18:54.234Z,20.30
2019-03-30T04:20:07.470Z,22.93
2019-03-30T04:21:20.786Z,24.12
2019-03-30T04:22:34.112Z,24.90
2019-03-30T04:23:48.760Z,22.95
2019-03-30T04:25:02.008Z,23.92
2019-03-30T04:26:15.232Z,27.48
2019-03-30T04:27:28.485Z,22.60
2019-03-30T04:28:41.781Z,26.15
2019-03-30T04:29:56.496Z,28.55
2019-03-30T04:31:09.729Z,28.98
2019-03-30T04:32:22.966Z,27.60
2019-03-30T04:33:36.500Z,25.92
2019-03-30T04:34:50.029Z,24.98
2019-03-30T04:36:03.319Z,24.45
2019-03-30T04:37:16.555Z,26.87
2019-03-30T04:38:29.785Z,27.65
2019-03-30T04:39:43.029Z,28.05
2019-03-30T04:40:56.266Z,23.02
2019-03-30T04:42:09.494Z,24.87
2019-03-30T04:43:22.720Z,21.02
2019-03-30T04:44:36.983Z,21.93
2019-03-30T04:45:50.229Z,23.15
2019-03-30T04:47:03.464Z,23.05
2019-03-30T04:48:16.686Z,25.20
2019-03-30T04:49:30.903Z,22.98
2019-03-30T04:50:44.125Z,23.70
2019-03-30T04:51:58.437Z,25.40
2019-03-30T04:53:11.651Z,26.37
2019-03-30T04:54:24.883Z,23.60
2019-03-30T04:55:38.426Z,25.77
2019-03-30T04:56:51.706Z,24.57
2019-03-30T04:58:04.966Z,25.23
2019-03-30T04:59:18.273Z,30.00
2019-03-30T05:00:32.782Z,28.62
2019-03-30T05:01:46.354Z,27.15
2019-03-30T05:02:59.591Z,25.95
2019-03-30T05:04:12.842Z,30.68
2019-03-30T05:05:26.069Z,24.20
2019-03-30T05:06:41.699Z,27.50
2019-03-30T05:07:55.013Z,27.87
2019-03-30T05:09:08.237Z,28.10
2019-03-30T05:10:23.038Z,26.12
2019-03-30T05:11:36.378Z,25.50
2019-03-30T05:12:51.507Z,23.98
2019-03-30T05:14:04.741Z,25.52
2019-03-30T05:15:17.964Z,27.65
2019-03-30T05:16:31.218Z,25.62
2019-03-30T05:17:47.845Z,26.75
2019-03-30T05:19:01.064Z,28.47
2019-03-30T05:20:14.300Z,27.70
2019-03-30T05:21:27.539Z,28.52
2019-03-30T05:22:40.785Z,27.07
2019-03-30T05:23:54.022Z,28.00
2019-03-30T05:25:07.266Z,25.10
2019-03-30T05:26:20.497Z,25.65
2019-03-30T05:27:33.741Z,25.32
2019-03-30T05:28:46.999Z,27.10
2019-03-30T05:30:00.406Z,28.47
2019-03-30T05:31:13.639Z,29.27
2019-03-30T05:32:26.886Z,26.37
2019-03-30T05:33:40.130Z,23.35
2019-03-30T05:34:53.368Z,25.43
2019-03-30T05:36:06.615Z,26.85
2019-03-30T05:37:19.858Z,24.87
2019-03-30T05:38:33.097Z,25.62
2019-03-30T05:39:46.336Z,24.57
2019-03-30T05:40:59.583Z,23.83
2019-03-30T05:42:12.826Z,23.70
2019-03-30T05:43:27.701Z,24.85
2019-03-30T05:44:40.944Z,25.50
2019-03-30T05:45:55.464Z,26.70
2019-03-30T05:47:08.709Z,25.80
2019-03-30T05:48:21.946Z,25.23
2019-03-30T05:49:35.179Z,24.70
2019-03-30T05:50:48.411Z,23.02
2019-03-30T05:52:01.634Z,23.18
2019-03-30T05:53:14.879Z,20.70
2019-03-30T05:54:28.109Z,24.52
2019-03-30T05:55:42.522Z,20.50
2019-03-30T05:56:56.230Z,19.85
2019-03-30T05:58:10.529Z,20.85
2019-03-30T05:59:23.771Z,24.55
2019-03-30T06:00:37.005Z,22.13
2019-03-30T06:01:50.233Z,17.80
2019-03-30T06:03:09.827Z,21.12
2019-03-30T06:04:23.073Z,21.60
2019-03-30T06:05:36.305Z,21.68
2019-03-30T06:06:49.540Z,17.70
2019-03-30T06:08:02.779Z,18.42
2019-03-30T06:09:16.481Z,21.95
2019-03-30T06:10:29.734Z,20.20
2019-03-30T06:11:42.961Z,21.52
2019-03-30T06:12:56.185Z,22.32
2019-03-30T06:14:09.435Z,19.95
2019-03-30T06:15:23.408Z,20.15
2019-03-30T06:16:36.646Z,20.90
2019-03-30T06:17:51.521Z,18.77
2019-03-30T06:19:06.251Z,20.20
2019-03-30T06:20:20.727Z,18.77
2019-03-30T06:21:33.978Z,17.55
2019-03-30T06:22:48.845Z,19.23
2019-03-30T06:24:03.876Z,18.27
2019-03-30T06:25:17.100Z,17.75
2019-03-30T06:26:31.329Z,20.45
2019-03-30T06:27:44.573Z,16.00
2019-03-30T06:28:57.789Z,16.77
2019-03-30T06:30:24.005Z,20.62
2019-03-30T06:31:39.206Z,20.52
2019-03-30T06:32:53.829Z,19.32
2019-03-30T06:34:07.058Z,19.10
2019-03-30T06:35:20.292Z,19.42
2019-03-30T06:36:33.527Z,20.35
2019-03-30T06:37:46.767Z,20.65
2019-03-30T06:39:00.328Z,19.45
2019-03-30T06:40:14.139Z,20.75
2019-03-30T06:41:27.371Z,20.75
2019-03-30T06:42:40.602Z,18.23
2019-03-30T06:43:54.426Z,18.92
2019-03-30T06:45:07.650Z,20.82
2019-03-30T06:46:23.490Z,16.55
2019-03-30T06:47:36.721Z,19.17
2019-03-30T06:48:54.488Z,18.70
2019-03-30T06:50:08.102Z,19.25
2019-03-30T06:51:21.343Z,17.67
2019-03-30T06:52:35.470Z,18.17
2019-03-30T06:53:48.942Z,17.50
2019-03-30T06:55:04.757Z,15.18
2019-03-30T06:56:18.743Z,19.25
2019-03-30T06:57:33.432Z,18.62
2019-03-30T06:58:46.646Z,18.95
2019-03-30T06:59:59.874Z,16.97
2019-03-30T07:01:13.698Z,18.02
2019-03-30T07:02:26.975Z,17.05
2019-03-30T07:03:40.749Z,15.85
2019-03-30T07:04:53.978Z,17.67
2019-03-30T07:06:08.861Z,14.03
2019-03-30T07:07:23.149Z,17.70
2019-03-30T07:08:36.381Z,15.00
2019-03-30T07:09:51.709Z,16.85
2019-03-30T07:11:04.946Z,15.93
2019-03-30T07:12:18.841Z,15.48
2019-03-30T07:13:34.470Z,15.95
2019-03-30T07:14:47.915Z,18.80
2019-03-30T07:16:01.166Z,14.75
2019-03-30T07:17:14.383Z,14.85
2019-03-30T07:18:27.647Z,21.73
2019-03-30T07:19:40.907Z,17.10
2019-03-30T07:20:54.178Z,17.70
2019-03-30T07:22:07.417Z,18.23
2019-03-30T07:23:20.695Z,19.27
2019-03-30T07:24:33.941Z,17.32
2019-03-30T07:25:48.800Z,15.05
2019-03-30T07:27:02.042Z,17.65
2019-03-30T07:28:15.276Z,18.62
2019-03-30T07:29:28.741Z,14.43
2019-03-30T07:30:42.231Z,17.73
2019-03-30T07:31:55.467Z,16.35
2019-03-30T07:33:10.344Z,14.63
2019-03-30T07:34:23.574Z,14.87
2019-03-30T07:35:36.829Z,17.05
2019-03-30T07:36:52.589Z,18.65
2019-03-30T07:38:05.825Z,17.75
2019-03-30T07:39:19.061Z,16.37
2019-03-30T07:40:33.938Z,17.05
2019-03-30T07:41:47.272Z,17.45
2019-03-30T07:43:00.491Z,18.87
2019-03-30T07:44:13.726Z,17.77
2019-03-30T07:45:26.978Z,17.77
2019-03-30T07:46:41.842Z,17.80
2019-03-30T07:47:55.082Z,15.53
2019-03-30T07:49:08.327Z,17.80
2019-03-30T07:50:21.544Z,15.75
2019-03-30T07:51:34.794Z,17.42
2019-03-30T07:52:48.032Z,18.27
2019-03-30T07:54:01.262Z,17.00
2019-03-30T07:55:15.062Z,15.83
2019-03-30T07:56:28.303Z,17.17
2019-03-30T07:57:41.598Z,17.00
2019-03-30T07:58:55.111Z,19.92
2019-03-30T08:00:08.413Z,18.80
2019-03-30T08:01:21.646Z,18.00
2019-03-30T08:02:34.873Z,19.05
2019-03-30T08:03:48.123Z,20.30
2019-03-30T08:05:01.346Z,16.20
2019-03-30T08:06:15.724Z,19.17
2019-03-30T08:07:29.006Z,19.87
2019-03-30T08:08:42.282Z,19.23
2019-03-30T08:09:55.529Z,19.23
2019-03-30T08:11:08.782Z,18.62
2019-03-30T08:12:22.022Z,18.80
2019-03-30T08:13:35.255Z,21.00
2019-03-30T08:14:48.565Z,18.85
2019-03-30T08:16:01.814Z,19.55
2019-03-30T08:17:15.055Z,18.25
2019-03-30T08:18:28.318Z,19.23
2019-03-30T08:19:41.803Z,18.85
2019-03-30T08:20:55.034Z,17.77
2019-03-30T08:22:08.741Z,17.90
2019-03-30T08:23:21.971Z,20.05
2019-03-30T08:24:35.201Z,18.00
2019-03-30T08:25:48.899Z,23.77
2019-03-30T08:27:02.153Z,24.47
2019-03-30T08:28:16.447Z,22.05
2019-03-30T08:29:30.847Z,21.20
2019-03-30T08:30:44.086Z,23.57
2019-03-30T08:31:57.317Z,20.85
2019-03-30T08:33:11.304Z,23.38
2019-03-30T08:34:24.541Z,23.18
2019-03-30T08:35:37.777Z,23.18
2019-03-30T08:36:51.485Z,20.72
2019-03-30T08:38:04.728Z,21.17
2019-03-30T08:39:18.423Z,22.27
2019-03-30T08:40:31.667Z,21.57
2019-03-30T08:41:44.891Z,20.43
2019-03-30T08:42:58.390Z,22.55
2019-03-30T08:44:11.643Z,21.05
2019-03-30T08:45:24.904Z,22.15
2019-03-30T08:46:45.046Z,22.60
2019-03-30T08:47:58.325Z,22.15
2019-03-30T08:49:11.808Z,22.58
2019-03-30T08:50:25.073Z,21.23
2019-03-30T08:51:38.302Z,21.85
2019-03-30T08:52:52.468Z,24.82
2019-03-30T08:54:05.727Z,21.27
2019-03-30T08:55:22.402Z,21.17
2019-03-30T08:56:35.654Z,19.60
2019-03-30T08:57:50.167Z,22.02
2019-03-30T08:59:03.400Z,23.40
2019-03-30T09:00:25.513Z,19.75
2019-03-30T09:01:40.496Z,21.55
2019-03-30T09:02:53.688Z,20.20
2019-03-30T09:04:06.962Z,21.85
2019-03-30T09:05:20.198Z,22.32
2019-03-30T09:06:33.533Z,20.92
2019-03-30T09:07:46.781Z,19.48
2019-03-30T09:09:00.022Z,23.22
2019-03-30T09:10:13.257Z,21.68
2019-03-30T09:11:26.485Z,20.23
2019-03-30T09:12:39.997Z,19.70
2019-03-30T09:13:53.322Z,21.57
2019-03-30T09:15:07.206Z,22.73
2019-03-30T09:16:20.596Z,20.52
2019-03-30T09:17:37.117Z,22.40
2019-03-30T09:18:48.824Z,19.98
2019-03-30T09:20:02.065Z,19.65
2019-03-30T09:21:15.312Z,20.70
2019-03-30T09:22:28.549Z,21.45
2019-03-30T09:23:44.535Z,21.77
2019-03-30T09:24:57.763Z,18.95
2019-03-30T09:26:11.032Z,20.25
2019-03-30T09:27:24.547Z,20.80
2019-03-30T09:28:37.782Z,20.20
2019-03-30T09:29:51.030Z,21.65
2019-03-30T09:31:05.886Z,20.52
2019-03-30T09:32:22.030Z,23.00
2019-03-30T09:33:36.191Z,21.50
2019-03-30T09:34:50.438Z,19.95
2019-03-30T09:36:04.965Z,21.40
2019-03-30T09:37:18.215Z,22.48
2019-03-30T09:38:32.836Z,22.02
2019-03-30T09:39:46.078Z,19.87
2019-03-30T09:41:00.144Z,23.02
2019-03-30T09:42:13.441Z,20.65
2019-03-30T09:43:27.243Z,21.05
2019-03-30T09:44:40.466Z,20.45
2019-03-30T09:45:54.794Z,22.07
2019-03-30T09:47:08.029Z,19.52
2019-03-30T09:48:21.373Z,18.77
2019-03-30T09:49:34.619Z,20.12
2019-03-30T09:50:47.926Z,19.67
2019-03-30T09:52:01.418Z,26.00
2019-03-30T09:53:14.893Z,21.65
2019-03-30T09:54:28.365Z,19.65
2019-03-30T09:55:42.371Z,22.67
2019-03-30T09:56:55.840Z,16.82
2019-03-30T09:58:09.071Z,21.25
2019-03-30T09:59:22.307Z,18.23
2019-03-30T10:00:35.561Z,22.65
2019-03-30T10:01:48.788Z,19.87
2019-03-30T10:03:02.047Z,21.02
2019-03-30T10:04:15.702Z,20.17
2019-03-30T10:05:28.966Z,17.40
2019-03-30T10:06:43.538Z,18.75
2019-03-30T10:07:56.821Z,21.05
2019-03-30T10:09:11.939Z,20.45
2019-03-30T10:10:25.305Z,17.05
2019-03-30T10:11:38.535Z,18.32
2019-03-30T10:12:51.770Z,21.12
2019-03-30T10:14:05.008Z,18.30
2019-03-30T10:15:18.254Z,23.42
2019-03-30T10:16:31.490Z,19.98
2019-03-30T10:17:46.003Z,20.80
2019-03-30T10:18:59.595Z,20.15
2019-03-30T10:20:13.116Z,21.30
2019-03-30T10:21:26.357Z,19.32
2019-03-30T10:22:42.221Z,21.20
2019-03-30T10:23:54.806Z,21.00
2019-03-30T10:25:08.069Z,21.57
2019-03-30T10:26:21.329Z,21.85
2019-03-30T10:27:34.563Z,17.10
2019-03-30T10:28:48.059Z,19.87
2019-03-30T10:30:01.485Z,21.45
2019-03-30T10:31:16.012Z,20.85
2019-03-30T10:32:32.486Z,23.60
2019-03-30T10:33:45.718Z,20.92
2019-03-30T10:34:58.975Z,18.40
2019-03-30T10:36:12.193Z,19.25
2019-03-30T10:37:26.069Z,19.40
2019-03-30T10:38:39.538Z,19.75
2019-03-30T10:39:52.829Z,17.92
2019-03-30T10:41:06.073Z,18.45
2019-03-30T10:42:19.332Z,19.40
2019-03-30T10:43:32.901Z,20.57
2019-03-30T10:44:47.766Z,16.52
2019-03-30T10:46:01.467Z,20.90
2019-03-30T10:47:14.719Z,19.42
2019-03-30T10:48:28.361Z,18.07
2019-03-30T10:49:41.612Z,22.02
2019-03-30T10:50:54.849Z,19.35
2019-03-30T10:52:08.091Z,20.17
2019-03-30T10:53:21.329Z,19.07
2019-03-30T10:54:34.578Z,15.78
2019-03-30T10:55:48.763Z,16.42
2019-03-30T10:57:02.421Z,16.85
2019-03-30T10:58:15.651Z,21.00
2019-03-30T10:59:28.893Z,18.65
2019-03-30T11:00:42.142Z,19.02
2019-03-30T11:01:56.031Z,17.90
2019-03-30T11:03:09.290Z,19.73
2019-03-30T11:04:22.760Z,18.70
2019-03-30T11:05:36.255Z,15.45
2019-03-30T11:06:49.487Z,22.75
2019-03-30T11:08:03.283Z,20.65
2019-03-30T11:09:16.531Z,16.85
2019-03-30T11:10:33.684Z,18.67
2019-03-30T11:11:47.149Z,19.62
2019-03-30T11:13:00.842Z,22.77
2019-03-30T11:14:14.075Z,22.15
2019-03-30T11:15:27.310Z,19.27
2019-03-30T11:16:41.126Z,18.02
2019-03-30T11:17:54.363Z,18.35
2019-03-30T11:19:07.600Z,23.70
2019-03-30T11:20:20.831Z,18.23
2019-03-30T11:21:34.074Z,19.50
2019-03-30T11:22:47.634Z,30.37
2019-03-30T11:24:00.865Z,23.47
2019-03-30T11:25:14.104Z,26.93
2019-03-30T11:26:27.338Z,19.77
2019-03-30T11:27:40.603Z,20.40
2019-03-30T11:28:54.078Z,18.95
2019-03-30T11:30:08.999Z,18.75
2019-03-30T11:31:22.234Z,20.55
2019-03-30T11:32:35.472Z,21.02
2019-03-30T11:33:48.965Z,27.25
2019-03-30T11:35:02.196Z,22.37
2019-03-30T11:36:18.485Z,17.48
2019-03-30T11:37:30.392Z,20.90
2019-03-30T11:38:43.613Z,20.10
2019-03-30T11:39:56.926Z,19.10
2019-03-30T11:41:10.162Z,26.07
2019-03-30T11:42:23.390Z,19.70
2019-03-30T11:43:36.623Z,17.35
2019-03-30T11:44:49.865Z,19.42
2019-03-30T11:46:03.110Z,16.30
2019-03-30T11:47:16.417Z,17.57
2019-03-30T11:48:29.729Z,17.75
2019-03-30T11:49:43.610Z,19.17
2019-03-30T11:50:56.869Z,16.27
2019-03-30T11:52:10.104Z,16.87
2019-03-30T11:53:23.341Z,18.37
2019-03-30T11:54:36.582Z,16.75
2019-03-30T11:55:49.819Z,15.55
2019-03-30T11:57:03.084Z,16.52
2019-03-30T11:58:16.327Z,15.60
2019-03-30T11:59:30.131Z,14.95
2019-03-30T12:00:43.369Z,16.82
2019-03-30T12:01:56.601Z,15.88
2019-03-30T12:03:09.845Z,15.10
2019-03-30T12:04:23.074Z,15.65
2019-03-30T12:05:36.318Z,17.40
2019-03-30T12:06:51.900Z,16.27
2019-03-30T12:08:05.244Z,18.42
2019-03-30T12:09:18.491Z,15.25
2019-03-30T12:10:32.440Z,14.95
2019-03-30T12:11:45.665Z,16.90
2019-03-30T12:12:58.898Z,14.13
2019-03-30T12:14:12.167Z,12.98
2019-03-30T12:15:25.395Z,17.87
2019-03-30T12:16:38.720Z,19.23
2019-03-30T12:17:51.958Z,16.48
2019-03-30T12:19:05.186Z,14.50
2019-03-30T12:20:18.445Z,17.10
2019-03-30T12:21:31.746Z,17.05
2019-03-30T12:22:46.607Z,15.68
2019-03-30T12:23:59.837Z,15.10
2019-03-30T12:25:13.086Z,16.67
2019-03-30T12:26:26.319Z,16.27
2019-03-30T12:27:39.810Z,17.25
2019-03-30T12:28:53.054Z,17.15
2019-03-30T12:30:07.915Z,20.90
2019-03-30T12:31:21.167Z,16.23
2019-03-30T12:32:34.399Z,16.42
2019-03-30T12:33:47.713Z,39.63
2019-03-30T12:35:00.946Z,18.37
2019-03-30T12:36:14.187Z,16.70
2019-03-30T12:37:27.448Z,16.20
2019-03-30T12:38:42.317Z,15.03
2019-03-30T12:39:58.241Z,15.90
2019-03-30T12:41:10.579Z,14.75
2019-03-30T12:42:23.840Z,15.48
2019-03-30T12:43:39.022Z,14.23
2019-03-30T12:44:52.052Z,15.00
2019-03-30T12:46:05.293Z,14.90
2019-03-30T12:47:18.600Z,14.23
2019-03-30T12:48:31.858Z,15.53
2019-03-30T12:49:45.475Z,13.83
2019-03-30T12:50:58.795Z,16.27
2019-03-30T12:52:12.033Z,15.88
2019-03-30T12:53:25.278Z,17.60
2019-03-30T12:54:38.543Z,14.40
2019-03-30T12:55:52.041Z,14.70
2019-03-30T12:57:05.274Z,17.07
2019-03-30T12:58:19.500Z,13.85
2019-03-30T12:59:32.763Z,17.45
2019-03-30T13:00:45.994Z,15.28
2019-03-30T13:01:59.230Z,16.82
2019-03-30T13:03:12.462Z,15.08
2019-03-30T13:04:25.698Z,13.72
2019-03-30T13:05:38.956Z,15.40
2019-03-30T13:06:52.184Z,11.70
2019-03-30T13:08:05.433Z,12.10
2019-03-30T13:09:18.737Z,12.45
2019-03-30T13:10:32.179Z,11.28
2019-03-30T13:11:45.422Z,12.80
2019-03-30T13:12:58.686Z,13.15
2019-03-30T13:14:12.090Z,11.28
2019-03-30T13:15:25.566Z,11.40
2019-03-30T13:16:39.047Z,16.67
2019-03-30T13:17:52.538Z,16.95
2019-03-30T13:19:05.841Z,13.35
2019-03-30T13:20:19.079Z,11.75
2019-03-30T13:21:32.766Z,14.33
2019-03-30T13:22:46.018Z,13.88
2019-03-30T13:23:59.618Z,14.33
2019-03-30T13:25:15.588Z,12.43
2019-03-30T13:26:28.827Z,14.38
2019-03-30T13:27:43.992Z,19.17
2019-03-30T13:28:57.605Z,15.10
2019-03-30T13:30:11.782Z,16.67
2019-03-30T13:31:25.007Z,18.82
2019-03-30T13:32:38.252Z,16.27
2019-03-30T13:33:51.486Z,14.70
2019-03-30T13:35:04.893Z,15.85
2019-03-30T13:36:19.418Z,17.02
2019-03-30T13:37:32.644Z,17.80
2019-03-30T13:38:45.903Z,16.35
2019-03-30T13:39:59.138Z,16.85
2019-03-30T13:41:14.194Z,13.10
2019-03-30T13:42:28.174Z,14.73
2019-03-30T13:43:41.412Z,13.40
2019-03-30T13:44:55.208Z,14.98
2019-03-30T13:46:08.434Z,14.63
2019-03-30T13:47:21.676Z,16.32
2019-03-30T13:48:34.906Z,15.38
2019-03-30T13:49:48.147Z,14.98
2019-03-30T13:51:01.370Z,13.08
2019-03-30T13:52:14.601Z,13.95
2019-03-30T13:53:28.319Z,13.22
2019-03-30T13:54:41.862Z,15.00
2019-03-30T13:55:55.096Z,15.35
2019-03-30T13:57:11.168Z,17.45
2019-03-30T13:58:24.402Z,14.05
2019-03-30T13:59:37.632Z,15.65
2019-03-30T14:00:50.880Z,17.75
2019-03-30T14:02:04.134Z,18.35
2019-03-30T14:03:17.373Z,18.37
2019-03-30T14:04:30.594Z,15.05
2019-03-30T14:05:45.497Z,30.27
2019-03-30T14:06:58.738Z,14.07
2019-03-30T14:08:11.992Z,11.83
2019-03-30T14:09:25.265Z,16.75
2019-03-30T14:10:39.164Z,15.28
2019-03-30T14:11:52.529Z,22.40
2019-03-30T14:13:05.779Z,25.12
2019-03-30T14:14:19.018Z,16.10
2019-03-30T14:15:32.257Z,13.03
2019-03-30T14:16:45.495Z,15.00
2019-03-30T14:17:58.722Z,13.95
2019-03-30T14:19:11.983Z,15.05
2019-03-30T14:20:25.470Z,16.70
2019-03-30T14:21:38.701Z,15.60
2019-03-30T14:22:51.924Z,16.52
2019-03-30T14:24:05.154Z,15.80
2019-03-30T14:25:18.400Z,13.00
2019-03-30T14:26:31.999Z,13.58
2019-03-30T14:27:45.709Z,19.77
2019-03-30T14:28:58.956Z,18.00
2019-03-30T14:30:12.970Z,13.08
2019-03-30T14:31:26.207Z,12.90
2019-03-30T14:32:40.565Z,16.17
2019-03-30T14:34:00.269Z,14.63
2019-03-30T14:38:26.925Z,12.85
2019-03-30T14:39:40.882Z,13.85
2019-03-30T14:40:54.130Z,12.05
2019-03-30T14:42:08.535Z,13.30
2019-03-30T14:43:21.762Z,15.78
2019-03-30T14:44:35.000Z,14.38
2019-03-30T14:45:48.222Z,14.68
2019-03-30T14:47:02.519Z,14.95
2019-03-30T14:48:15.746Z,14.15
2019-03-30T14:49:28.981Z,15.93
2019-03-30T14:50:42.238Z,14.75
2019-03-30T14:51:55.498Z,18.55
2019-03-30T14:53:08.750Z,15.13
2019-03-30T14:54:22.236Z,15.18
2019-03-30T14:55:35.465Z,16.93
2019-03-30T14:56:48.701Z,16.20
2019-03-30T14:58:01.941Z,18.37
2019-03-30T14:59:15.181Z,19.45
2019-03-30T15:00:28.513Z,17.07
2019-03-30T15:01:41.923Z,15.43
2019-03-30T15:02:55.254Z,15.23
2019-03-30T15:04:08.470Z,15.23
2019-03-30T15:05:21.705Z,18.60
2019-03-30T15:06:34.953Z,15.80
2019-03-30T15:07:48.202Z,17.37
2019-03-30T15:09:01.451Z,17.87
2019-03-30T15:10:14.670Z,17.90
2019-03-30T15:11:27.907Z,17.65
2019-03-30T15:12:41.188Z,16.50
2019-03-30T15:13:54.414Z,19.02
2019-03-30T15:15:09.793Z,18.65
2019-03-30T15:16:23.017Z,15.83
2019-03-30T15:17:36.439Z,17.75
2019-03-30T15:18:49.702Z,20.00
2019-03-30T15:20:02.995Z,16.82
2019-03-30T15:21:16.238Z,13.78
2019-03-30T15:22:29.479Z,16.77
2019-03-30T15:23:42.765Z,20.68
2019-03-30T15:24:56.000Z,23.12
2019-03-30T15:26:09.245Z,21.33
2019-03-30T15:27:22.516Z,15.28
2019-03-30T15:28:35.775Z,19.35
2019-03-30T15:29:49.026Z,19.87
2019-03-30T15:31:02.253Z,19.32
2019-03-30T15:32:15.970Z,16.85
2019-03-30T15:33:29.228Z,19.27
2019-03-30T15:34:43.217Z,20.40
2019-03-30T15:35:57.472Z,18.45
2019-03-30T15:37:13.683Z,21.77
2019-03-30T15:38:26.924Z,20.62
2019-03-30T15:39:40.174Z,25.17
2019-03-30T15:40:55.618Z,21.50
2019-03-30T15:42:08.372Z,18.07
2019-03-30T15:43:21.619Z,21.80
2019-03-30T15:44:34.850Z,19.12
2019-03-30T15:45:48.090Z,16.12
2019-03-30T15:47:01.330Z,18.17
2019-03-30T15:48:15.539Z,25.40
2019-03-30T15:49:28.779Z,18.75
2019-03-30T15:50:42.078Z,18.27